.
WxDataArchive / Data Records for 2009-10-24
2009-10-23 October 2009 2009-10-25

Data Records for Saturday, 24 October 2009

Time	Temp	Chill	HIndex	Humid	Dewpt	 Wind 	HiWind	WindDir	Rain 	Barom 
-----	----	-----	------	-----	-----	------	------	-------	-----	----- 
00:00	51.1	51.1	51.1	81	45.5	2	10	292	0.00	29.581 
00:05	51.1	51.1	51.1	81	45.5	2	6	248	0.00	29.581 
00:10	51.1	51.1	51.1	81	45.5	2	5	248	0.00	29.581 
00:15	51.0	51.0	51.0	81	45.4	2	5	248	0.00	29.572 
00:20	51.0	51.0	51.0	82	45.7	3	7	248	0.00	29.572 
00:25	51.0	51.0	51.0	81	45.4	1	4	248	0.00	29.572 
00:30	50.8	50.8	50.8	81	45.2	2	5	248	0.00	29.572 
00:35	50.8	50.8	50.8	81	45.2	1	4	248	0.00	29.572 
00:40	50.7	50.7	50.7	82	45.4	1	5	248	0.00	29.572 
00:45	50.7	50.7	50.7	81	45.1	2	5	248	0.00	29.570 
00:50	50.7	50.7	50.7	81	45.1	1	5	225	0.00	29.570 
00:55	50.5	50.5	50.5	81	44.9	1	4	248	0.00	29.570 
01:00	50.5	50.5	50.5	82	45.2	1	5	248	0.00	29.568 
01:05	50.5	50.5	50.5	82	45.2	2	6	270	0.00	29.568 
01:10	50.5	50.5	50.5	82	45.2	2	6	248	0.00	29.568 
01:15	50.5	50.5	50.5	82	45.2	2	5	248	0.00	29.569 
01:20	50.4	50.4	50.4	82	45.1	2	5	248	0.00	29.569 
01:25	50.4	50.4	50.4	82	45.1	2	5	270	0.00	29.569 
01:30	50.4	50.4	50.4	82	45.1	2	9	248	0.00	29.570 
01:35	50.4	50.4	50.4	82	45.1	2	4	248	0.00	29.570 
01:40	50.4	50.4	50.4	82	45.1	2	4	248	0.00	29.570 
01:45	50.4	50.4	50.4	82	45.1	2	4	248	0.00	29.569 
01:50	50.2	50.2	50.2	82	44.9	2	6	248	0.00	29.569 
01:55	50.2	50.2	50.2	83	45.2	1	4	248	0.00	29.569 
02:00	50.2	50.2	50.2	82	44.9	3	7	248	0.00	29.571 
02:05	50.2	50.2	50.2	82	44.9	3	7	270	0.00	29.571 
02:10	50.2	50.2	50.2	82	44.9	3	9	248	0.00	29.571 
02:15	50.1	50.1	50.1	81	44.5	2	9	248	0.00	29.571 
02:20	50.1	50.1	50.1	81	44.5	2	5	270	0.00	29.571 
02:25	49.9	49.9	49.9	81	44.3	2	5	248	0.00	29.571 
02:30	49.9	49.9	49.9	81	44.3	2	7	292	0.00	29.574 
02:35	49.9	49.9	49.9	80	44.0	2	7	248	0.00	29.574 
02:40	49.8	49.8	49.8	80	43.9	2	10	225	0.00	29.574 
02:45	49.8	49.8	49.8	80	43.9	2	9	248	0.00	29.572 
02:50	49.8	49.8	49.8	80	43.9	2	5	270	0.00	29.572 
02:55	49.6	49.6	49.6	80	43.7	2	7	248	0.00	29.572 
03:00	49.6	49.6	49.6	80	43.7	2	6	248	0.00	29.573 
03:05	49.5	49.5	49.5	80	43.6	2	10	248	0.00	29.573 
03:10	49.4	49.4	49.4	79	43.2	3	6	248	0.00	29.573 
03:15	49.2	49.2	49.2	79	43.0	2	5	315	0.00	29.573 
03:20	49.2	49.2	49.2	79	43.0	3	7	248	0.00	29.573 
03:25	49.1	49.1	49.1	79	42.9	3	7	270	0.00	29.573 
03:30	49.1	49.1	49.1	80	43.2	3	12	248	0.00	29.571 
03:35	48.9	48.9	48.9	80	43.0	2	7	248	0.00	29.571 
03:40	48.8	48.8	48.8	81	43.2	1	5	248	0.00	29.571 
03:45	48.8	48.8	48.8	81	43.2	3	6	270	0.00	29.565 
03:50	48.8	48.8	48.8	81	43.2	1	4	270	0.00	29.565 
03:55	48.6	48.6	48.6	81	43.0	2	4	225	0.00	29.565 
04:00	48.6	48.6	48.6	82	43.4	2	5	248	0.00	29.568 
04:05	48.5	48.5	48.5	82	43.3	2	10	248	0.00	29.568 
04:10	48.5	48.5	48.5	81	42.9	3	11	270	0.00	29.568 
04:15	48.3	48.3	48.3	81	42.7	2	9	248	0.00	29.566 
04:20	48.3	48.3	48.3	81	42.7	1	5	225	0.00	29.566 
04:25	48.3	48.3	48.3	81	42.7	2	5	248	0.00	29.566 
04:30	48.2	48.2	48.2	81	42.6	2	5	270	0.00	29.569 
04:35	48.2	48.2	48.2	81	42.6	3	9	248	0.00	29.569 
04:40	48.2	48.2	48.2	81	42.6	2	5	248	0.00	29.569 
04:45	48.0	48.0	48.0	82	42.8	2	7	270	0.00	29.563 
04:50	47.9	47.9	47.9	84	43.3	2	7	248	0.00	29.563 
04:55	47.7	47.7	47.7	84	43.1	3	6	248	0.00	29.563 
05:00	47.6	47.6	47.6	84	43.0	1	4	225	0.00	29.567 
05:05	47.6	47.6	47.6	85	43.3	2	5	248	0.00	29.567 
05:10	47.4	47.4	47.4	86	43.4	2	5	270	0.00	29.567 
05:15	47.3	47.3	47.3	86	43.3	3	6	248	0.00	29.567 
05:20	47.1	47.1	47.1	87	43.4	2	5	248	0.00	29.567 
05:25	46.8	46.8	46.8	88	43.4	1	6	248	0.00	29.567 
05:30	46.7	46.7	46.7	88	43.3	2	5	248	0.00	29.571 
05:35	46.5	46.5	46.5	89	43.4	1	4	248	0.01	29.571 
05:40	46.4	46.4	46.4	90	43.6	1	4	270	0.00	29.571 
05:45	46.1	46.1	46.1	91	43.6	1	3	248	0.00	29.580 
05:50	45.8	45.8	45.8	91	43.3	2	6	248	0.00	29.580 
05:55	45.7	45.7	45.7	91	43.2	2	5	248	0.00	29.580 
06:00	45.4	45.4	45.4	92	43.2	1	4	292	0.00	29.585 
06:05	45.2	45.2	45.2	92	43.0	2	6	248	0.00	29.585 
06:10	45.1	45.1	45.1	92	42.9	2	4	248	0.00	29.585 
06:15	45.1	45.1	45.1	92	42.9	1	4	248	0.00	29.592 
06:20	45.1	45.1	45.1	93	43.2	1	4	248	0.00	29.592 
06:25	44.9	44.9	44.9	93	43.0	2	6	248	0.00	29.592 
06:30	44.6	44.6	44.6	93	42.7	2	5	248	0.00	29.593 
06:35	44.5	44.5	44.5	93	42.6	2	5	248	0.00	29.593 
06:40	44.3	44.3	44.3	93	42.4	2	5	270	0.00	29.593 
06:45	44.3	44.3	44.3	93	42.4	1	6	248	0.00	29.597 
06:50	44.2	44.2	44.2	93	42.3	2	5	248	0.00	29.597 
06:55	44.1	44.1	44.1	92	41.9	2	5	270	0.00	29.597 
07:00	44.1	44.1	44.1	92	41.9	2	9	248	0.00	29.599 
07:05	43.9	43.9	43.9	92	41.7	2	6	248	0.00	29.599 
07:10	43.9	43.9	43.9	92	41.7	3	7	270	0.00	29.599 
07:15	43.9	43.9	43.9	92	41.7	1	5	248	0.00	29.604 
07:20	43.9	43.9	43.9	92	41.7	2	5	248	0.00	29.604 
07:25	43.9	43.9	43.9	92	41.7	2	6	270	0.00	29.604 
07:30	43.9	43.9	43.9	92	41.7	1	4	248	0.00	29.608 
07:35	43.8	43.8	43.8	92	41.6	1	3	248	0.00	29.608 
07:40	43.8	43.8	43.8	92	41.6	1	5	248	0.00	29.608 
07:45	43.8	43.8	43.8	92	41.6	1	3	248	0.00	29.610 
07:50	43.8	43.8	43.8	92	41.6	1	3	248	0.00	29.610 
07:55	43.8	43.8	43.8	92	41.6	2	5	270	0.00	29.610 
08:00	43.8	43.8	43.8	92	41.6	1	2	248	0.00	29.609 
08:05	43.8	43.8	43.8	92	41.6	1	3	225	0.00	29.609 
08:10	43.8	43.8	43.8	92	41.6	1	5	248	0.00	29.609 
08:15	43.6	43.6	43.6	92	41.4	1	4	248	0.00	29.612 
08:20	43.5	43.5	43.5	92	41.3	2	5	248	0.00	29.612 
08:25	43.5	43.5	43.5	92	41.3	2	6	248	0.00	29.612 
08:30	43.5	43.5	43.5	91	41.0	2	5	248	0.00	29.618 
08:35	43.5	43.5	43.5	91	41.0	2	6	270	0.00	29.618 
08:40	43.5	43.5	43.5	90	40.8	2	5	248	0.00	29.618 
08:45	43.5	43.5	43.5	90	40.8	1	5	248	0.00	29.626 
08:50	43.5	43.5	43.5	90	40.8	2	5	248	0.00	29.626 
08:55	43.5	43.5	43.5	90	40.8	1	5	270	0.00	29.626 
09:00	43.1	43.1	43.1	90	40.4	3	10	270	0.00	29.633 
09:05	42.8	42.8	42.8	90	40.1	2	5	270	0.00	29.633 
09:10	42.5	42.5	42.5	91	40.1	2	5	270	0.00	29.633 
09:15	42.3	42.3	42.3	91	39.9	2	4	248	0.00	29.644 
09:20	42.2	42.2	42.2	91	39.8	3	7	270	0.00	29.644 
09:25	41.9	39.5	41.9	91	39.5	4	7	270	0.00	29.644 
09:30	41.6	41.6	41.6	90	38.9	3	10	248	0.00	29.648 
09:35	41.6	41.6	41.6	90	38.9	3	6	248	0.00	29.648 
09:40	41.6	41.6	41.6	89	38.6	3	10	270	0.00	29.648 
09:45	41.6	41.6	41.6	89	38.6	2	6	248	0.00	29.651 
09:50	41.8	41.8	41.8	89	38.8	2	6	248	0.00	29.651 
09:55	41.8	41.8	41.8	89	38.8	2	5	270	0.00	29.651 
10:00	41.8	41.8	41.8	89	38.8	2	5	270	0.00	29.658 
10:05	41.9	41.9	41.9	89	38.9	2	5	248	0.00	29.658 
10:10	42.1	42.1	42.1	90	39.4	2	6	248	0.00	29.658 
10:15	41.8	41.8	41.8	89	38.8	3	9	270	0.00	29.664 
10:20	41.1	38.6	41.1	88	37.8	4	8	248	0.00	29.664 
10:25	40.8	40.8	40.8	88	37.5	3	8	248	0.00	29.664 
10:30	40.9	40.9	40.9	88	37.6	2	5	292	0.00	29.666 
10:35	41.2	41.2	41.2	88	37.9	2	5	248	0.00	29.666 
10:40	41.5	41.5	41.5	87	37.9	2	5	270	0.00	29.666 
10:45	41.9	41.9	41.9	86	38.0	2	6	292	0.00	29.669 
10:50	42.5	42.5	42.5	85	38.3	2	6	270	0.00	29.669 
10:55	42.8	42.8	42.8	83	38.0	2	5	270	0.00	29.669 
11:00	42.8	42.8	42.8	81	37.4	3	7	270	0.00	29.669 
11:05	42.9	42.9	42.9	81	37.5	2	4	270	0.00	29.669 
11:10	42.8	42.8	42.8	79	36.7	2	6	248	0.00	29.669 
11:15	42.9	42.9	42.9	77	36.2	3	7	270	0.00	29.679 
11:20	43.2	43.2	43.2	77	36.5	3	9	292	0.00	29.679 
11:25	43.2	43.2	43.2	76	36.2	3	9	270	0.00	29.679 
11:30	43.2	43.2	43.2	76	36.2	3	7	270	0.00	29.682 
11:35	43.2	43.2	43.2	77	36.5	3	5	248	0.00	29.682 
11:40	43.3	43.3	43.3	78	36.9	2	7	248	0.00	29.682 
11:45	43.3	41.1	43.3	77	36.6	4	10	248	0.00	29.684 
11:50	43.2	43.2	43.2	78	36.8	2	5	248	0.00	29.684 
11:55	43.2	43.2	43.2	78	36.8	2	6	270	0.00	29.684 
12:00	43.5	43.5	43.5	76	36.4	3	9	270	0.00	29.686 
12:05	44.1	44.1	44.1	76	37.0	2	4	248	0.00	29.686 
12:10	44.2	44.2	44.2	75	36.8	3	5	270	0.00	29.686 
12:15	43.8	41.7	43.8	77	37.1	4	5	270	0.00	29.695 
12:20	43.8	43.8	43.8	79	37.7	3	7	248	0.00	29.695 
12:25	43.8	43.8	43.8	79	37.7	2	5	248	0.00	29.695 
12:30	43.6	43.6	43.6	79	37.5	3	9	248	0.00	29.697 
12:35	43.3	43.3	43.3	81	37.9	3	5	270	0.00	29.697 
12:40	43.1	43.1	43.1	83	38.3	2	5	270	0.00	29.697 
12:45	43.2	43.2	43.2	85	39.0	2	5	270	0.00	29.700 
12:50	43.5	43.5	43.5	84	39.0	3	5	248	0.00	29.700 
12:55	43.6	43.6	43.6	85	39.4	2	4	248	0.00	29.700 
13:00	43.6	43.6	43.6	85	39.4	1	4	248	0.00	29.706 
13:05	43.3	43.3	43.3	85	39.1	2	4	270	0.00	29.706 
13:10	43.2	43.2	43.2	87	39.6	2	4	270	0.00	29.706 
13:15	43.3	43.3	43.3	87	39.7	2	7	248	0.00	29.708 
13:20	43.2	43.2	43.2	87	39.6	2	5	270	0.00	29.708 
13:25	43.2	43.2	43.2	87	39.6	2	5	248	0.00	29.708 
13:30	43.5	43.5	43.5	86	39.6	2	5	248	0.00	29.703 
13:35	44.3	44.3	44.3	87	40.7	2	4	248	0.00	29.703 
13:40	44.9	44.9	44.9	85	40.7	2	4	248	0.00	29.703 
13:45	45.1	45.1	45.1	81	39.6	3	7	270	0.00	29.707 
13:50	44.8	42.9	44.8	79	38.7	4	6	270	0.00	29.707 
13:55	44.8	44.8	44.8	78	38.4	3	5	248	0.00	29.707 
14:00	45.1	45.1	45.1	79	39.0	3	7	270	0.00	29.709 
14:05	45.4	45.4	45.4	77	38.6	2	6	270	0.00	29.709 
14:10	45.1	43.2	45.1	77	38.3	4	8	270	0.00	29.709 
14:15	45.1	43.2	45.1	77	38.3	4	10	270	0.00	29.712 
14:20	45.2	45.2	45.2	77	38.4	2	5	270	0.00	29.712 
14:25	45.5	45.5	45.5	76	38.4	2	5	270	0.00	29.712 
14:30	46.1	46.1	46.1	77	39.3	2	5	248	0.00	29.710 
14:35	46.5	46.5	46.5	76	39.3	1	5	248	0.00	29.710 
14:40	47.0	47.0	47.0	73	38.8	3	5	270	0.00	29.710 
14:45	47.0	47.0	47.0	71	38.1	3	7	270	0.00	29.712 
14:50	46.5	44.8	46.5	71	37.6	4	7	270	0.00	29.712 
14:55	46.2	46.2	46.2	73	38.0	3	6	270	0.00	29.712 
15:00	46.1	46.1	46.1	73	37.9	3	6	270	0.00	29.723 
15:05	46.0	44.2	46.0	70	36.8	4	6	270	0.00	29.723 
15:10	45.8	45.8	45.8	75	38.3	3	7	270	0.00	29.723 
15:15	45.8	44.0	45.8	75	38.3	4	9	270	0.00	29.728 
15:20	45.7	43.9	45.7	77	38.9	4	7	270	0.00	29.728 
15:25	45.1	45.1	45.1	81	39.6	3	6	248	0.00	29.728 
15:30	44.6	44.6	44.6	83	39.8	3	6	248	0.00	29.739 
15:35	44.6	44.6	44.6	85	40.4	2	4	270	0.00	29.739 
15:40	44.9	44.9	44.9	86	41.0	1	4	270	0.00	29.739 
15:45	45.1	45.1	45.1	85	40.9	2	5	270	0.00	29.743 
15:50	44.9	44.9	44.9	84	40.4	3	6	270	0.00	29.743 
15:55	44.9	44.9	44.9	82	39.7	3	7	270	0.00	29.743 
16:00	45.2	45.2	45.2	81	39.7	2	6	270	0.00	29.750 
16:05	45.4	43.6	45.4	79	39.3	4	6	270	0.00	29.750 
16:10	45.2	45.2	45.2	77	38.4	3	6	270	0.00	29.750 
16:15	45.1	45.1	45.1	78	38.7	3	9	248	0.00	29.760 
16:20	44.8	44.8	44.8	80	39.0	2	5	270	0.00	29.760 
16:25	44.5	44.5	44.5	80	38.7	2	5	270	0.00	29.760 
16:30	44.3	44.3	44.3	81	38.8	2	4	270	0.00	29.773 
16:35	44.2	44.2	44.2	80	38.4	3	6	292	0.00	29.773 
16:40	44.1	44.1	44.1	81	38.6	2	6	315	0.00	29.773 
16:45	44.1	44.1	44.1	81	38.6	2	5	270	0.00	29.777 
16:50	44.1	44.1	44.1	81	38.6	2	4	270	0.00	29.777 
16:55	43.9	43.9	43.9	81	38.5	2	5	270	0.00	29.777 
17:00	44.1	44.1	44.1	82	39.0	1	4	248	0.00	29.783 
17:05	44.1	44.1	44.1	82	39.0	1	3	248	0.00	29.783 
17:10	43.9	43.9	43.9	81	38.5	2	7	248	0.00	29.783 
17:15	43.9	43.9	43.9	82	38.8	2	5	270	0.00	29.795 
17:20	43.9	43.9	43.9	82	38.8	1	4	248	0.00	29.795 
17:25	44.1	44.1	44.1	82	39.0	1	4	270	0.00	29.795 
17:30	44.1	44.1	44.1	82	39.0	2	6	292	0.00	29.806 
17:35	44.1	44.1	44.1	81	38.6	2	4	292	0.00	29.806 
17:40	44.1	44.1	44.1	81	38.6	3	5	270	0.00	29.806 
17:45	44.1	44.1	44.1	80	38.3	3	5	270	0.00	29.816 
17:50	44.1	44.1	44.1	78	37.7	3	5	270	0.00	29.816 
17:55	44.1	44.1	44.1	76	37.0	3	5	270	0.00	29.816 
18:00	44.1	44.1	44.1	75	36.7	2	6	270	0.00	29.824 
18:05	43.9	43.9	43.9	74	36.2	3	5	270	0.00	29.824 
18:10	43.9	43.9	43.9	75	36.5	2	5	248	0.00	29.824 
18:15	43.9	43.9	43.9	75	36.5	1	3	248	0.00	29.829 
18:20	43.9	43.9	43.9	75	36.5	1	3	292	0.00	29.829 
18:25	43.9	43.9	43.9	76	36.8	1	2	292	0.00	29.829 
18:30	43.9	43.9	43.9	77	37.2	1	2	292	0.00	29.842 
18:35	43.9	43.9	43.9	77	37.2	1	3	292	0.00	29.842 
18:40	43.9	43.9	43.9	76	36.8	2	4	292	0.00	29.842 
18:45	43.9	43.9	43.9	76	36.8	1	5	270	0.00	29.846 
18:50	43.9	43.9	43.9	77	37.2	1	3	248	0.00	29.846 
18:55	43.9	43.9	43.9	77	37.2	1	3	292	0.00	29.846 
19:00	43.9	43.9	43.9	77	37.2	0	3	292	0.00	29.854 
19:05	43.9	43.9	43.9	77	37.2	0	2	270	0.00	29.854 
19:10	43.9	43.9	43.9	77	37.2	0	3	270	0.00	29.854 
19:15	43.9	43.9	43.9	77	37.2	0	1	270	0.00	29.862 
19:20	43.9	43.9	43.9	77	37.2	0	2	270	0.00	29.862 
19:25	43.8	43.8	43.8	78	37.4	0	1	270	0.00	29.862 
19:30	43.6	43.6	43.6	78	37.2	0	3	270	0.00	29.872 
19:35	43.5	43.5	43.5	78	37.1	0	2	270	0.00	29.872 
19:40	43.3	43.3	43.3	78	36.9	0	1	270	0.00	29.872 
19:45	43.2	43.2	43.2	79	37.1	0	1	270	0.00	29.878 
19:50	42.9	42.9	42.9	79	36.8	0	1	270	0.00	29.878 
19:55	42.8	42.8	42.8	80	37.1	0	0	---	0.00	29.878 
20:00	42.5	42.5	42.5	80	36.8	0	0	---	0.00	29.889 
20:05	42.2	42.2	42.2	81	36.8	0	1	270	0.00	29.889 
20:10	41.9	41.9	41.9	81	36.5	0	1	270	0.00	29.889 
20:15	41.8	41.8	41.8	82	36.7	0	0	---	0.00	29.896 
20:20	41.5	41.5	41.5	82	36.4	0	0	---	0.00	29.896 
20:25	41.2	41.2	41.2	83	36.4	0	1	270	0.00	29.896 
20:30	40.9	40.9	40.9	84	36.4	0	0	---	0.00	29.898 
20:35	40.6	40.6	40.6	84	36.2	0	0	---	0.00	29.898 
20:40	40.3	40.3	40.3	85	36.2	0	0	---	0.00	29.898 
20:45	39.9	39.9	39.9	85	35.8	0	0	---	0.00	29.906 
20:50	39.6	39.6	39.6	85	35.5	0	0	---	0.00	29.906 
20:55	39.3	39.3	39.3	85	35.2	0	0	---	0.00	29.906 
21:00	39.1	39.1	39.1	85	35.0	0	0	---	0.00	29.909 
21:05	38.8	38.8	38.8	86	35.0	0	0	---	0.00	29.909 
21:10	38.5	38.5	38.5	86	34.7	0	0	---	0.00	29.909 
21:15	38.2	38.2	38.2	86	34.4	0	0	---	0.00	29.914 
21:20	37.9	37.9	37.9	87	34.4	0	0	---	0.00	29.914 
21:25	37.8	37.8	37.8	87	34.3	0	0	---	0.00	29.914 
21:30	37.5	37.5	37.5	87	34.0	0	0	---	0.00	29.916 
21:35	37.2	37.2	37.2	88	34.0	0	0	---	0.00	29.916 
21:40	37.0	37.0	37.0	88	33.8	0	0	---	0.00	29.916 
21:45	36.8	36.8	36.8	89	33.9	0	0	---	0.00	29.928 
21:50	36.6	36.6	36.6	89	33.7	0	0	---	0.00	29.928 
21:55	36.5	36.5	36.5	89	33.6	0	0	---	0.00	29.928 
22:00	36.5	36.5	36.5	90	33.9	0	0	---	0.00	29.930 
22:05	36.3	36.3	36.3	90	33.7	0	0	---	0.00	29.930 
22:10	36.2	36.2	36.2	90	33.6	0	0	---	0.00	29.930 
22:15	36.0	36.0	36.0	90	33.4	0	0	---	0.00	29.931 
22:20	36.0	36.0	36.0	91	33.6	0	0	---	0.00	29.931 
22:25	36.0	36.0	36.0	91	33.6	0	0	---	0.00	29.931 
22:30	36.0	36.0	36.0	91	33.6	0	0	---	0.00	29.935 
22:35	36.0	36.0	36.0	92	33.9	0	0	---	0.00	29.935 
22:40	36.0	36.0	36.0	92	33.9	0	0	---	0.00	29.935 
22:45	35.9	35.9	35.9	92	33.8	0	0	---	0.00	29.946 
22:50	35.8	35.8	35.8	92	33.7	0	0	---	0.00	29.946 
22:55	35.8	35.8	35.8	92	33.7	0	0	---	0.00	29.946 
23:00	35.8	35.8	35.8	92	33.7	0	0	---	0.00	29.946 
23:05	35.8	35.8	35.8	92	33.7	0	0	---	0.00	29.946 
23:10	35.8	35.8	35.8	92	33.7	0	0	---	0.00	29.946 
23:15	35.9	35.9	35.9	93	34.1	0	0	---	0.00	29.947 
23:20	35.9	35.9	35.9	93	34.1	0	0	---	0.00	29.947 
23:25	35.9	35.9	35.9	93	34.1	0	0	---	0.00	29.947 
23:30	35.9	35.9	35.9	93	34.1	0	0	---	0.00	29.945 
23:35	35.8	35.8	35.8	93	34.0	0	0	---	0.00	29.945 
23:40	35.8	35.8	35.8	93	34.0	0	0	---	0.00	29.945 
23:45	35.9	35.9	35.9	93	34.1	0	0	---	0.00	29.949 
23:50	36.2	36.2	36.2	94	34.6	0	0	---	0.00	29.949 
23:55	36.3	36.3	36.3	94	34.7	0	0	---	0.00	29.949 

CoCoRaHS
IN-AL-39
A2 Web Hosting
Creative Commons License
GoDaddy
search engine by freefind advanced

loaded 2018-11-12 15:25:35 • last modified 2010-11-18 10:43:29
Privacy PolicyDisclaimer
• wx.awcolley.com is powered by PmWiki v.2002016 •
• all content (unless otherwise noted) © 2018 A W Colley